createdAt,value
2022-11-29T00:00:15.759Z,8.48
2022-11-29T00:04:17.789Z,8.46
2022-11-29T00:08:20.820Z,8.43
2022-11-29T00:12:22.867Z,8.44
2022-11-29T00:16:24.947Z,8.39
2022-11-29T00:20:26.978Z,8.36
2022-11-29T00:24:31.601Z,8.36
2022-11-29T00:28:35.248Z,8.41
2022-11-29T00:32:37.448Z,8.36
2022-11-29T00:36:40.342Z,8.35
2022-11-29T00:40:42.339Z,8.35
2022-11-29T00:44:44.623Z,8.39
2022-11-29T00:48:46.940Z,8.36
2022-11-29T00:52:49.505Z,8.37
2022-11-29T00:56:51.583Z,8.41
2022-11-29T01:00:54.391Z,8.41
2022-11-29T01:04:56.530Z,8.38
2022-11-29T01:08:58.532Z,8.36
2022-11-29T01:13:00.538Z,8.32
2022-11-29T01:17:02.723Z,8.29
2022-11-29T01:21:17.079Z,8.28
2022-11-29T01:25:19.454Z,8.30
2022-11-29T01:29:21.461Z,8.30
2022-11-29T01:33:23.507Z,8.37
2022-11-29T01:37:25.622Z,8.39
2022-11-29T01:41:30.526Z,8.43
2022-11-29T01:45:36.938Z,8.42
2022-11-29T01:49:43.260Z,8.42
2022-11-29T01:53:45.800Z,8.37
2022-11-29T01:57:48.122Z,8.41
2022-11-29T02:01:51.102Z,8.43
2022-11-29T02:05:54.852Z,8.38
2022-11-29T02:09:56.907Z,8.38
2022-11-29T02:14:18.765Z,8.39
2022-11-29T02:18:56.319Z,8.40
2022-11-29T02:23:26.337Z,8.36
2022-11-29T02:28:02.466Z,8.24
2022-11-29T02:32:23.037Z,8.17
2022-11-29T02:36:53.043Z,8.12
2022-11-29T02:41:30.062Z,8.09
2022-11-29T02:45:35.094Z,8.08
2022-11-29T02:49:53.480Z,8.08
2022-11-29T02:54:20.570Z,8.15
2022-11-29T02:58:37.639Z,8.15
2022-11-29T03:02:49.381Z,8.15
2022-11-29T03:07:02.971Z,8.16
2022-11-29T03:11:16.356Z,8.18
2022-11-29T03:15:29.761Z,8.07
2022-11-29T03:20:04.641Z,8.07
2022-11-29T03:24:21.064Z,8.15
2022-11-29T03:28:33.138Z,8.22
2022-11-29T03:32:47.406Z,8.25
2022-11-29T03:36:58.359Z,8.30
2022-11-29T03:41:31.505Z,8.26
2022-11-29T03:45:45.429Z,8.21
2022-11-29T03:50:01.356Z,8.23
2022-11-29T03:54:10.311Z,8.33
2022-11-29T03:58:40.787Z,8.44
2022-11-29T04:02:58.216Z,8.44
2022-11-29T04:07:18.700Z,8.44
2022-11-29T04:11:36.376Z,8.47
2022-11-29T04:15:56.956Z,8.42
2022-11-29T04:20:46.817Z,8.41
2022-11-29T04:25:18.337Z,8.37
2022-11-29T04:29:32.437Z,8.41
2022-11-29T04:33:59.345Z,8.44
2022-11-29T04:38:41.280Z,8.45
2022-11-29T04:43:21.031Z,8.49
2022-11-29T04:47:33.511Z,8.51
2022-11-29T04:52:11.023Z,8.48
2022-11-29T04:56:28.061Z,8.50
2022-11-29T05:00:35.180Z,8.54
2022-11-29T05:04:50.570Z,8.56
2022-11-29T05:09:18.031Z,8.54
2022-11-29T05:13:54.242Z,8.56
2022-11-29T05:17:56.967Z,8.57
2022-11-29T05:22:45.941Z,8.56
2022-11-29T05:27:28.274Z,8.51
2022-11-29T05:31:42.354Z,8.53
2022-11-29T05:36:01.274Z,8.58
2022-11-29T05:40:12.207Z,8.60
2022-11-29T05:44:23.982Z,8.65
2022-11-29T05:48:53.967Z,8.69
2022-11-29T05:53:35.643Z,8.61
2022-11-29T05:57:59.065Z,8.54
2022-11-29T06:02:17.716Z,8.58
2022-11-29T06:06:31.015Z,8.67
2022-11-29T06:10:39.876Z,8.66
2022-11-29T06:15:17.126Z,8.63
2022-11-29T06:19:53.272Z,8.76
2022-11-29T06:24:18.573Z,8.81
2022-11-29T06:28:48.846Z,8.78
2022-11-29T06:33:09.793Z,8.82
2022-11-29T06:37:48.394Z,8.85
2022-11-29T06:41:50.387Z,8.86
2022-11-29T06:46:03.039Z,8.91
2022-11-29T06:50:26.926Z,8.83
2022-11-29T06:54:32.048Z,8.74
2022-11-29T06:59:04.896Z,8.69
2022-11-29T07:03:25.090Z,8.61
2022-11-29T07:07:27.474Z,8.56
2022-11-29T07:11:29.878Z,8.60
2022-11-29T07:15:32.326Z,8.65
2022-11-29T07:19:49.575Z,8.69
2022-11-29T07:24:26.247Z,8.72
2022-11-29T07:28:49.310Z,8.75
2022-11-29T07:33:18.696Z,8.76
2022-11-29T07:37:33.702Z,8.79
2022-11-29T07:41:46.300Z,8.85
2022-11-29T07:45:48.754Z,8.93
2022-11-29T07:49:50.751Z,9.02
2022-11-29T07:53:52.823Z,9.13
2022-11-29T07:57:55.435Z,9.06
2022-11-29T08:01:58.703Z,9.03
2022-11-29T08:06:01.292Z,9.09
2022-11-29T08:10:06.226Z,9.12
2022-11-29T08:14:08.268Z,9.09
2022-11-29T08:18:10.251Z,9.10
2022-11-29T08:22:12.481Z,9.10
2022-11-29T08:26:16.216Z,9.21
2022-11-29T08:30:21.971Z,9.26
2022-11-29T08:34:24.594Z,9.22
2022-11-29T08:38:26.600Z,9.16
2022-11-29T08:42:28.573Z,9.27
2022-11-29T08:46:50.525Z,9.36
2022-11-29T08:50:54.374Z,9.45
2022-11-29T08:55:00.320Z,9.49
2022-11-29T08:59:05.706Z,9.45
2022-11-29T09:03:26.223Z,9.42
2022-11-29T09:07:28.321Z,9.45
2022-11-29T09:11:32.352Z,9.50
2022-11-29T09:15:34.518Z,9.50
2022-11-29T09:19:36.558Z,9.53
2022-11-29T09:23:40.005Z,9.52
2022-11-29T09:27:42.036Z,9.55
2022-11-29T09:31:47.444Z,9.62
2022-11-29T09:35:49.537Z,9.58
2022-11-29T09:39:51.550Z,9.51
2022-11-29T09:44:24.863Z,9.46
2022-11-29T09:48:39.075Z,9.44
2022-11-29T09:53:18.617Z,9.50
2022-11-29T09:57:23.814Z,9.58
2022-11-29T10:01:34.149Z,9.57
2022-11-29T10:05:50.201Z,9.53
2022-11-29T10:09:57.441Z,9.47
2022-11-29T10:14:09.133Z,9.39
2022-11-29T10:18:19.118Z,9.37
2022-11-29T10:22:53.437Z,9.38
2022-11-29T10:26:55.585Z,9.42
2022-11-29T10:31:07.931Z,9.43
2022-11-29T10:35:16.063Z,9.36
2022-11-29T10:39:45.296Z,9.28
2022-11-29T10:43:48.559Z,9.24
2022-11-29T10:47:52.628Z,9.28
2022-11-29T10:51:54.644Z,9.31
2022-11-29T10:56:08.797Z,9.34
2022-11-29T11:00:11.807Z,9.30
2022-11-29T11:04:45.241Z,9.31
2022-11-29T11:08:51.509Z,9.35
2022-11-29T11:13:18.804Z,9.48
2022-11-29T11:17:25.990Z,9.60
2022-11-29T11:21:28.169Z,9.78
2022-11-29T11:25:37.089Z,9.99
2022-11-29T11:29:43.376Z,10.08
2022-11-29T11:33:46.254Z,10.03
2022-11-29T11:37:57.524Z,10.07
2022-11-29T11:42:21.203Z,10.11
2022-11-29T11:46:43.720Z,10.10
2022-11-29T11:50:52.660Z,10.12
2022-11-29T11:54:59.209Z,10.08
2022-11-29T11:59:01.350Z,10.02
2022-11-29T12:03:04.839Z,10.00
2022-11-29T12:07:38.703Z,9.97
2022-11-29T12:12:00.497Z,9.97
2022-11-29T12:16:10.362Z,9.95
2022-11-29T12:20:32.377Z,9.94
2022-11-29T12:24:44.460Z,9.92
2022-11-29T12:28:47.408Z,9.88
2022-11-29T12:33:14.290Z,9.89
2022-11-29T12:37:25.650Z,9.89
2022-11-29T12:41:30.465Z,9.91
2022-11-29T12:45:32.436Z,9.94
2022-11-29T12:50:11.864Z,9.95
2022-11-29T12:54:16.660Z,9.99
2022-11-29T12:58:45.758Z,10.03
2022-11-29T13:03:10.145Z,10.01
2022-11-29T13:07:43.263Z,9.97
2022-11-29T13:11:57.473Z,9.90
2022-11-29T13:16:31.240Z,9.93
2022-11-29T13:20:43.853Z,9.93
2022-11-29T13:24:53.537Z,10.03
2022-11-29T13:28:56.983Z,10.06
2022-11-29T13:33:11.620Z,10.06
2022-11-29T13:37:30.155Z,9.92
2022-11-29T13:41:40.815Z,9.92
2022-11-29T13:46:13.589Z,10.02
2022-11-29T13:50:44.771Z,10.06
2022-11-29T13:54:47.180Z,10.15
2022-11-29T13:58:53.637Z,10.18
2022-11-29T14:02:57.327Z,10.21
2022-11-29T14:07:04.051Z,10.23
2022-11-29T14:11:26.815Z,10.22
2022-11-29T14:15:32.022Z,10.18
2022-11-29T14:19:36.531Z,10.12
2022-11-29T14:23:42.929Z,10.05
2022-11-29T14:27:53.616Z,10.04
2022-11-29T14:31:56.116Z,10.03
2022-11-29T14:36:31.424Z,9.99
2022-11-29T14:40:36.264Z,9.93
2022-11-29T14:44:44.711Z,9.92
2022-11-29T14:48:58.543Z,9.88
2022-11-29T14:53:02.121Z,9.89
2022-11-29T14:57:45.968Z,9.79
2022-11-29T15:01:49.235Z,9.67
2022-11-29T15:05:58.205Z,9.62
2022-11-29T15:10:04.092Z,9.56
2022-11-29T15:14:43.837Z,9.50
2022-11-29T15:19:20.374Z,9.40
2022-11-29T15:23:22.397Z,9.29
2022-11-29T15:27:24.761Z,9.22
2022-11-29T15:31:26.863Z,9.16
2022-11-29T15:35:29.157Z,9.14
2022-11-29T15:39:36.186Z,9.11
2022-11-29T15:43:38.699Z,9.10
2022-11-29T15:47:40.713Z,9.07
2022-11-29T15:51:43.178Z,8.98
2022-11-29T15:55:49.354Z,8.94
2022-11-29T15:59:55.658Z,8.95
2022-11-29T16:03:58.432Z,8.95
2022-11-29T16:08:04.493Z,8.98
2022-11-29T16:12:15.444Z,9.11
2022-11-29T16:16:22.104Z,9.13
2022-11-29T16:20:25.998Z,9.09
2022-11-29T16:24:28.092Z,9.03
2022-11-29T16:28:42.901Z,8.99
2022-11-29T16:32:48.340Z,8.96
2022-11-29T16:37:07.452Z,8.97
2022-11-29T16:41:22.716Z,8.98
2022-11-29T16:45:39.071Z,8.98
2022-11-29T16:49:41.182Z,8.99
2022-11-29T16:53:50.221Z,8.95
2022-11-29T16:57:52.529Z,8.88
2022-11-29T17:01:55.881Z,8.84
2022-11-29T17:05:57.968Z,8.82
2022-11-29T17:10:00.105Z,8.78
2022-11-29T17:14:02.130Z,8.71
2022-11-29T17:18:04.210Z,8.63
2022-11-29T17:22:06.236Z,8.60
2022-11-29T17:26:09.262Z,8.57
2022-11-29T17:30:11.856Z,8.57
2022-11-29T17:34:13.990Z,8.61
2022-11-29T17:38:16.013Z,8.63
2022-11-29T17:42:18.057Z,8.70
2022-11-29T17:46:31.119Z,8.72
2022-11-29T17:50:33.197Z,8.73
2022-11-29T17:54:35.987Z,8.77
2022-11-29T17:58:38.876Z,8.73
2022-11-29T18:02:41.035Z,8.74
2022-11-29T18:06:43.668Z,8.80
2022-11-29T18:10:45.693Z,8.76
2022-11-29T18:14:50.086Z,8.79
2022-11-29T18:19:00.404Z,8.79
2022-11-29T18:23:07.649Z,8.87
2022-11-29T18:27:10.122Z,8.93
2022-11-29T18:31:18.471Z,8.87
2022-11-29T18:35:20.605Z,8.83
2022-11-29T18:39:24.911Z,8.81
2022-11-29T18:43:26.980Z,8.85
2022-11-29T18:47:32.776Z,8.86
2022-11-29T18:51:36.610Z,8.84
2022-11-29T18:55:38.648Z,8.81
2022-11-29T18:59:40.607Z,8.77
2022-11-29T19:03:45.157Z,8.78
2022-11-29T19:07:47.235Z,8.73
2022-11-29T19:11:50.408Z,8.73
2022-11-29T19:15:54.025Z,8.73
2022-11-29T19:19:57.338Z,8.67
2022-11-29T19:24:01.477Z,8.66
2022-11-29T19:28:03.547Z,8.71
2022-11-29T19:32:06.710Z,8.71
2022-11-29T19:36:12.702Z,8.71
2022-11-29T19:40:14.804Z,8.70
2022-11-29T19:44:16.862Z,8.67
2022-11-29T19:48:18.865Z,8.62
2022-11-29T19:52:20.879Z,8.54
2022-11-29T19:56:23.786Z,8.49
2022-11-29T20:00:25.959Z,8.48
2022-11-29T20:04:27.981Z,8.48
2022-11-29T20:08:31.166Z,8.46
2022-11-29T20:12:33.633Z,8.44
2022-11-29T20:16:37.807Z,8.40
2022-11-29T20:20:40.152Z,8.35
2022-11-29T20:24:45.629Z,8.30
2022-11-29T20:28:47.961Z,8.21
2022-11-29T20:32:50.063Z,8.17
2022-11-29T20:37:07.433Z,8.11
2022-11-29T20:41:24.814Z,8.09
2022-11-29T20:45:27.328Z,8.09
2022-11-29T20:49:29.529Z,8.06
2022-11-29T20:53:40.392Z,8.00
2022-11-29T20:57:42.388Z,7.96
2022-11-29T21:01:44.397Z,7.94
2022-11-29T21:05:47.377Z,7.93
2022-11-29T21:09:49.378Z,8.02
2022-11-29T21:13:51.717Z,7.99
2022-11-29T21:17:54.213Z,7.93
2022-11-29T21:22:33.921Z,7.84
2022-11-29T21:26:43.642Z,7.87
2022-11-29T21:30:45.931Z,7.87
2022-11-29T21:34:48.308Z,7.89
2022-11-29T21:38:54.927Z,7.95
2022-11-29T21:42:57.411Z,7.88
2022-11-29T21:46:59.435Z,7.88
2022-11-29T21:51:06.974Z,7.91
2022-11-29T21:55:09.192Z,7.90
2022-11-29T21:59:11.183Z,7.90
2022-11-29T22:03:13.212Z,7.93
2022-11-29T22:07:15.224Z,7.93
2022-11-29T22:11:34.162Z,8.01
2022-11-29T22:15:36.251Z,8.07
2022-11-29T22:19:38.437Z,8.01
2022-11-29T22:23:40.568Z,7.93
2022-11-29T22:27:42.631Z,7.96
2022-11-29T22:31:46.710Z,7.93
2022-11-29T22:35:48.761Z,7.85
2022-11-29T22:39:50.819Z,7.77
2022-11-29T22:43:53.041Z,7.67
2022-11-29T22:47:55.029Z,7.74
2022-11-29T22:51:57.083Z,7.80
2022-11-29T22:56:01.073Z,7.81
2022-11-29T23:00:04.651Z,7.74
2022-11-29T23:04:08.470Z,7.73
2022-11-29T23:08:10.472Z,7.77
2022-11-29T23:12:12.619Z,7.76
2022-11-29T23:16:17.246Z,7.71
2022-11-29T23:20:19.357Z,7.67
2022-11-29T23:24:21.361Z,7.68
2022-11-29T23:28:24.400Z,7.69
2022-11-29T23:32:26.620Z,7.71
2022-11-29T23:36:28.989Z,7.77
2022-11-29T23:40:31.046Z,7.83
2022-11-29T23:44:33.111Z,7.87
2022-11-29T23:48:35.358Z,7.91
2022-11-29T23:52:37.967Z,7.99
2022-11-29T23:56:39.984Z,7.99
